Archival Weather

Republic

Farmingdale, New York (KFRG)

Report from: Monday, February 19, 2024 12:53 AM EST
Current time: Monday, June 24, 2024 7:33 AM EDT

Current weather – Weather history – Daily summaries
Weather forecast

Temperature2.2°C (36.0°F)
Wind chill-2.0°C (28.5°F)
Dew point-8.9°C (16.0°F)
Winds 9 kts (4.6 m/s, 10.4 mph) West-Northwest (290°)
Wind gusts 15 kts (7.7 m/s, 17.3 mph)
Visibility10 mi. (16.1 km)
Clouds Sky clear
Altimeter29.95 in.Hg (1014 mB)
Relative humidity44 %
Density altitude-1,532 ft. (-467 m)
Sea-level pressure101.4 kPa (1014 mB, 29.95 in.Hg)
Max temp last 6 hours3.3°C (37.9°F)
Min temp last 6 hours1.1°C (34.0°F)
Remarks Fully automated report
Automated weather observing station without precipitation discriminator
Freezing rain sensor not operating
Pressure rising more quickly
Flight conditions Visual Meteorological Conditions
Raw dataKFRG 190553Z AUTO 29009G15KT 10SM CLR 02/M09 A2995 RMK AO1 SLP141 T00221089 10033 20011 53020 FZRANO
An error has occurred. This application may no longer respond until reloaded. Reload 🗙